createdAt,value
2018-09-04T00:02:20.220Z,91.60
2018-09-04T00:05:53.456Z,91.70
2018-09-04T00:09:26.697Z,92.00
2018-09-04T00:12:59.919Z,91.80
2018-09-04T00:16:33.560Z,91.90
2018-09-04T00:20:06.829Z,91.90
2018-09-04T00:23:40.061Z,92.00
2018-09-04T00:27:13.305Z,92.00
2018-09-04T00:30:46.544Z,92.00
2018-09-04T00:34:19.799Z,92.00
2018-09-04T00:37:53.025Z,92.00
2018-09-04T00:41:26.518Z,92.10
2018-09-04T00:44:59.757Z,92.10
2018-09-04T00:48:37.894Z,92.00
2018-09-04T00:52:11.112Z,92.10
2018-09-04T00:55:44.351Z,92.20
2018-09-04T00:59:17.547Z,92.20
2018-09-04T01:02:50.775Z,92.20
2018-09-04T01:06:23.991Z,92.30
2018-09-04T01:09:57.211Z,92.20
2018-09-04T01:13:30.416Z,92.40
2018-09-04T01:17:03.638Z,92.40
2018-09-04T01:20:36.943Z,92.30
2018-09-04T01:24:10.744Z,92.30
2018-09-04T01:27:43.952Z,92.30
2018-09-04T01:31:17.194Z,92.30
2018-09-04T01:34:50.408Z,92.10
2018-09-04T01:38:23.627Z,91.90
2018-09-04T01:41:56.840Z,92.00
2018-09-04T01:45:30.060Z,91.60
2018-09-04T01:49:03.259Z,91.60
2018-09-04T01:52:36.479Z,91.70
2018-09-04T01:56:09.691Z,91.80
2018-09-04T01:59:42.915Z,91.80
2018-09-04T02:03:16.140Z,91.80
2018-09-04T02:06:49.398Z,91.90
2018-09-04T02:10:22.610Z,92.00
2018-09-04T02:13:55.819Z,92.00
2018-09-04T02:17:29.032Z,92.00
2018-09-04T02:21:02.249Z,92.00
2018-09-04T02:24:35.449Z,91.90
2018-09-04T02:28:08.678Z,91.90
2018-09-04T02:31:41.880Z,92.00
2018-09-04T02:35:15.114Z,92.20
2018-09-04T02:38:48.316Z,92.10
2018-09-04T02:42:21.539Z,91.90
2018-09-04T02:45:54.767Z,91.80
2018-09-04T02:49:27.980Z,91.80
2018-09-04T02:53:01.270Z,91.60
2018-09-04T02:56:34.501Z,91.50
2018-09-04T03:00:08.047Z,91.40
2018-09-04T03:03:41.286Z,91.30
2018-09-04T03:07:14.485Z,91.30
2018-09-04T03:10:47.704Z,91.30
2018-09-04T03:14:20.932Z,91.30
2018-09-04T03:17:54.143Z,91.30
2018-09-04T03:21:27.363Z,91.40
2018-09-04T03:25:00.575Z,91.50
2018-09-04T03:28:33.796Z,91.50
2018-09-04T03:32:07.251Z,91.50
2018-09-04T03:35:40.452Z,91.40
2018-09-04T03:39:13.673Z,91.60
2018-09-04T03:42:46.870Z,91.60
2018-09-04T03:46:20.080Z,91.50
2018-09-04T03:49:53.298Z,91.50
2018-09-04T03:53:26.512Z,91.40
2018-09-04T03:56:59.714Z,91.50
2018-09-04T04:00:32.927Z,91.60
2018-09-04T04:04:06.147Z,91.60
2018-09-04T04:07:39.368Z,91.90
2018-09-04T04:11:12.579Z,92.20
2018-09-04T04:14:45.790Z,92.20
2018-09-04T04:18:19.002Z,92.40
2018-09-04T04:21:52.211Z,92.70
2018-09-04T04:25:25.470Z,92.70
2018-09-04T04:28:58.718Z,92.70
2018-09-04T04:32:31.931Z,92.60
2018-09-04T04:36:05.170Z,92.50
2018-09-04T04:39:38.391Z,92.40
2018-09-04T04:43:11.661Z,92.30
2018-09-04T04:46:44.867Z,92.40
2018-09-04T04:50:18.703Z,92.40
2018-09-04T04:53:51.963Z,92.50
2018-09-04T04:57:25.191Z,92.50
2018-09-04T05:00:59.109Z,92.30
2018-09-04T05:04:32.384Z,92.10
2018-09-04T05:08:05.690Z,91.90
2018-09-04T05:11:39.762Z,91.80
2018-09-04T05:15:12.938Z,91.90
2018-09-04T05:18:47.032Z,91.80
2018-09-04T05:22:20.281Z,92.00
2018-09-04T05:25:53.567Z,91.80
2018-09-04T05:29:27.080Z,91.60
2018-09-04T05:33:09.517Z,91.40
2018-09-04T05:36:42.844Z,91.30
2018-09-04T05:40:16.721Z,91.60
2018-09-04T05:43:55.059Z,91.10
2018-09-04T05:47:33.264Z,91.00
2018-09-04T05:51:06.508Z,90.90
2018-09-04T05:54:40.203Z,90.80
2018-09-04T05:58:13.427Z,90.60
2018-09-04T06:01:46.657Z,90.50
2018-09-04T06:05:20.417Z,90.50
2018-09-04T06:08:53.643Z,90.50
2018-09-04T06:12:26.882Z,90.30
2018-09-04T06:16:00.101Z,90.30
2018-09-04T06:19:33.345Z,90.20
2018-09-04T06:23:06.639Z,90.20
2018-09-04T06:26:39.855Z,90.20
2018-09-04T06:30:13.175Z,90.10
2018-09-04T06:33:46.956Z,90.00
2018-09-04T06:37:20.183Z,90.00
2018-09-04T06:40:54.618Z,90.00
2018-09-04T06:44:28.031Z,90.00
2018-09-04T06:48:01.280Z,90.00
2018-09-04T06:51:34.525Z,89.80
2018-09-04T06:55:07.786Z,89.40
2018-09-04T06:58:41.047Z,89.10
2018-09-04T07:02:14.279Z,89.40
2018-09-04T07:05:47.520Z,89.30
2018-09-04T07:09:20.761Z,89.60
2018-09-04T07:12:54.009Z,90.10
2018-09-04T07:16:27.247Z,90.40
2018-09-04T07:20:00.480Z,90.40
2018-09-04T07:23:33.720Z,90.50
2018-09-04T07:27:06.961Z,90.60
2018-09-04T07:30:40.230Z,90.50
2018-09-04T07:34:13.462Z,90.60
2018-09-04T07:37:46.696Z,90.70
2018-09-04T07:41:19.932Z,90.70
2018-09-04T07:44:53.147Z,90.70
2018-09-04T07:48:26.399Z,90.40
2018-09-04T07:51:59.628Z,90.50
2018-09-04T07:55:32.859Z,90.30
2018-09-04T07:59:06.088Z,90.20
2018-09-04T08:02:39.321Z,90.10
2018-09-04T08:06:12.547Z,89.50
2018-09-04T08:09:45.777Z,89.40
2018-09-04T08:13:19.003Z,89.00
2018-09-04T08:16:52.227Z,89.00
2018-09-04T08:20:26.063Z,88.40
2018-09-04T08:23:59.215Z,88.00
2018-09-04T08:27:32.469Z,87.80
2018-09-04T08:31:05.697Z,87.10
2018-09-04T08:34:38.936Z,86.80
2018-09-04T08:38:12.168Z,86.70
2018-09-04T08:41:45.407Z,85.50
2018-09-04T08:45:18.632Z,84.20
2018-09-04T08:48:51.855Z,83.60
2018-09-04T08:52:25.080Z,82.70
2018-09-04T08:55:58.298Z,82.90
2018-09-04T08:59:31.528Z,83.00
2018-09-04T09:03:04.747Z,82.70
2018-09-04T09:06:38.004Z,82.50
2018-09-04T09:10:11.306Z,82.60
2018-09-04T09:13:44.459Z,81.70
2018-09-04T09:17:17.669Z,81.70
2018-09-04T09:20:50.902Z,81.80
2018-09-04T09:24:24.140Z,81.50
2018-09-04T09:27:57.350Z,80.90
2018-09-04T09:31:30.581Z,81.00
2018-09-04T09:35:03.877Z,80.70
2018-09-04T09:38:37.055Z,80.00
2018-09-04T09:42:13.548Z,79.20
2018-09-04T09:45:46.780Z,78.80
2018-09-04T09:49:19.997Z,78.40
2018-09-04T09:52:53.297Z,77.10
2018-09-04T09:56:26.575Z,76.80
2018-09-04T09:59:59.857Z,76.80
2018-09-04T10:03:38.349Z,76.50
2018-09-04T10:07:11.560Z,75.90
2018-09-04T10:10:44.826Z,75.40
2018-09-04T10:14:18.075Z,75.40
2018-09-04T10:17:51.307Z,74.10
2018-09-04T10:21:24.652Z,74.10
2018-09-04T10:24:57.793Z,74.20
2018-09-04T10:28:31.023Z,74.70
2018-09-04T10:32:04.237Z,74.50
2018-09-04T10:35:37.526Z,74.50
2018-09-04T10:39:16.167Z,74.30
2018-09-04T10:42:49.400Z,74.30
2018-09-04T10:46:22.680Z,74.30
2018-09-04T10:49:56.208Z,74.50
2018-09-04T10:53:29.444Z,73.70
2018-09-04T10:57:02.667Z,73.10
2018-09-04T11:00:35.909Z,72.00
2018-09-04T11:04:09.155Z,72.30
2018-09-04T11:07:42.363Z,72.40
2018-09-04T11:11:15.579Z,72.30
2018-09-04T11:14:48.801Z,71.40
2018-09-04T11:18:22.059Z,70.80
2018-09-04T11:21:55.280Z,70.40
2018-09-04T11:25:28.507Z,69.60
2018-09-04T11:29:03.677Z,69.10
2018-09-04T11:32:36.904Z,68.60
2018-09-04T11:36:10.133Z,68.10
2018-09-04T11:39:43.374Z,67.50
2018-09-04T11:43:16.595Z,67.20
2018-09-04T11:46:49.847Z,67.00
2018-09-04T11:50:23.059Z,66.80
2018-09-04T11:53:56.284Z,66.50
2018-09-04T11:57:29.496Z,66.10
2018-09-04T12:01:04.306Z,66.00
2018-09-04T12:04:37.524Z,65.90
2018-09-04T12:08:10.763Z,65.30
2018-09-04T12:11:48.204Z,65.00
2018-09-04T12:15:21.432Z,64.60
2018-09-04T12:18:54.663Z,64.50
2018-09-04T12:22:27.904Z,64.60
2018-09-04T12:26:02.410Z,64.40
2018-09-04T12:29:35.644Z,64.00
2018-09-04T12:33:08.867Z,62.90
2018-09-04T12:36:42.107Z,62.70
2018-09-04T12:40:15.352Z,62.40
2018-09-04T12:43:48.595Z,61.80
2018-09-04T12:47:21.807Z,60.80
2018-09-04T12:50:56.148Z,61.10
2018-09-04T12:54:29.354Z,60.30
2018-09-04T12:58:02.727Z,60.40
2018-09-04T13:01:35.968Z,60.00
2018-09-04T13:05:09.201Z,60.00
2018-09-04T13:08:42.437Z,60.10
2018-09-04T13:12:15.660Z,58.70
2018-09-04T13:15:51.800Z,57.70
2018-09-04T13:19:25.062Z,56.90
2018-09-04T13:22:58.284Z,56.70
2018-09-04T13:26:32.419Z,57.30
2018-09-04T13:30:05.759Z,57.30
2018-09-04T13:33:39.007Z,56.70
2018-09-04T13:37:12.264Z,56.70
2018-09-04T13:40:45.503Z,55.80
2018-09-04T13:44:18.732Z,55.70
2018-09-04T13:47:51.961Z,55.90
2018-09-04T13:51:25.191Z,56.10
2018-09-04T13:54:58.456Z,56.70
2018-09-04T13:58:31.691Z,55.20
2018-09-04T14:02:04.920Z,55.00
2018-09-04T14:05:38.156Z,55.00
2018-09-04T14:09:11.464Z,55.00
2018-09-04T14:12:44.700Z,54.60
2018-09-04T14:16:20.069Z,54.10
2018-09-04T14:19:53.279Z,53.70
2018-09-04T14:23:26.537Z,53.50
2018-09-04T14:26:59.780Z,53.40
2018-09-04T14:30:33.092Z,53.20
2018-09-04T14:34:06.285Z,52.60
2018-09-04T14:37:39.593Z,52.50
2018-09-04T14:41:12.767Z,52.30
2018-09-04T14:44:46.011Z,51.60
2018-09-04T14:48:19.228Z,51.50
2018-09-04T14:51:52.456Z,51.00
2018-09-04T14:55:25.679Z,51.20
2018-09-04T14:58:59.156Z,51.00
2018-09-04T15:02:32.405Z,50.70
2018-09-04T15:06:05.729Z,50.50
2018-09-04T15:09:38.923Z,50.40
2018-09-04T15:13:12.171Z,50.00
2018-09-04T15:16:45.403Z,49.40
2018-09-04T15:20:18.881Z,49.40
2018-09-04T15:23:52.115Z,49.00
2018-09-04T15:27:25.867Z,48.90
2018-09-04T15:30:59.139Z,48.80
2018-09-04T15:34:32.414Z,49.00
2018-09-04T15:38:06.115Z,49.40
2018-09-04T15:41:39.356Z,49.50
2018-09-04T15:45:12.572Z,49.50
2018-09-04T15:48:50.203Z,49.50
2018-09-04T15:52:23.443Z,49.70
2018-09-04T15:55:56.663Z,49.50
2018-09-04T15:59:29.895Z,50.00
2018-09-04T16:03:03.123Z,50.30
2018-09-04T16:06:36.363Z,50.80
2018-09-04T16:10:09.786Z,51.10
2018-09-04T16:13:42.872Z,51.50
2018-09-04T16:17:16.112Z,52.10
2018-09-04T16:20:49.359Z,52.60
2018-09-04T16:24:22.586Z,52.90
2018-09-04T16:27:55.819Z,53.40
2018-09-04T16:31:29.047Z,53.40
2018-09-04T16:35:02.358Z,53.80
2018-09-04T16:38:35.520Z,54.10
2018-09-04T16:42:08.867Z,54.50
2018-09-04T16:45:42.094Z,54.60
2018-09-04T16:49:15.337Z,54.90
2018-09-04T16:52:48.591Z,55.20
2018-09-04T16:56:21.831Z,55.50
2018-09-04T16:59:55.067Z,55.70
2018-09-04T17:03:28.600Z,56.00
2018-09-04T17:07:01.815Z,56.90
2018-09-04T17:10:35.064Z,56.50
2018-09-04T17:14:08.611Z,57.10
2018-09-04T17:17:41.862Z,57.20
2018-09-04T17:21:15.086Z,57.50
2018-09-04T17:24:48.335Z,57.80
2018-09-04T17:28:21.624Z,58.00
2018-09-04T17:31:54.908Z,57.90
2018-09-04T17:35:28.130Z,58.30
2018-09-04T17:39:01.361Z,58.80
2018-09-04T17:42:34.699Z,58.90
2018-09-04T17:46:07.972Z,59.20
2018-09-04T17:49:41.236Z,59.30
2018-09-04T17:53:14.543Z,59.70
2018-09-04T17:56:47.831Z,59.80
2018-09-04T18:00:21.248Z,59.90
2018-09-04T18:03:54.598Z,59.80
2018-09-04T18:07:28.220Z,60.30
2018-09-04T18:11:01.448Z,60.80
2018-09-04T18:14:34.716Z,61.40
2018-09-04T18:18:08.057Z,61.50
2018-09-04T18:21:41.322Z,61.50
2018-09-04T18:25:14.568Z,62.50
2018-09-04T18:28:47.848Z,63.70
2018-09-04T18:32:21.071Z,64.30
2018-09-04T18:35:54.885Z,64.80
2018-09-04T18:39:29.333Z,65.30
2018-09-04T18:43:02.580Z,65.70
2018-09-04T18:46:35.817Z,66.40
2018-09-04T18:50:09.081Z,66.60
2018-09-04T18:53:42.356Z,66.90
2018-09-04T18:57:15.584Z,67.30
2018-09-04T19:00:48.811Z,67.60
2018-09-04T19:04:22.041Z,67.90
2018-09-04T19:07:55.275Z,68.10
2018-09-04T19:11:28.504Z,68.40
2018-09-04T19:15:01.740Z,68.70
2018-09-04T19:18:35.036Z,69.10
2018-09-04T19:22:08.228Z,69.40
2018-09-04T19:25:41.465Z,69.60
2018-09-04T19:29:14.727Z,70.00
2018-09-04T19:32:48.200Z,70.30
2018-09-04T19:36:21.435Z,70.50
2018-09-04T19:39:54.684Z,71.90
2018-09-04T19:43:27.911Z,71.40
2018-09-04T19:47:01.223Z,71.80
2018-09-04T19:50:34.523Z,72.00
2018-09-04T19:54:07.781Z,72.40
2018-09-04T19:57:41.017Z,72.70
2018-09-04T20:01:14.321Z,73.00
2018-09-04T20:04:47.520Z,73.20
2018-09-04T20:08:20.777Z,73.40
2018-09-04T20:11:53.996Z,73.50
2018-09-04T20:15:27.296Z,73.80
2018-09-04T20:19:00.533Z,74.10
2018-09-04T20:22:33.827Z,74.20
2018-09-04T20:26:07.056Z,74.50
2018-09-04T20:29:40.349Z,75.20
2018-09-04T20:33:14.551Z,74.10
2018-09-04T20:36:47.996Z,74.20
2018-09-04T20:40:21.311Z,74.30
2018-09-04T20:43:54.564Z,74.20
2018-09-04T20:47:27.812Z,74.10
2018-09-04T20:51:01.053Z,74.50
2018-09-04T20:54:34.299Z,74.80
2018-09-04T20:58:18.994Z,75.00
2018-09-04T21:02:03.580Z,75.70
2018-09-04T21:05:48.190Z,76.30
2018-09-04T21:09:38.244Z,76.50
2018-09-04T21:13:12.221Z,76.90
2018-09-04T21:16:45.467Z,77.20
2018-09-04T21:20:18.707Z,77.30
2018-09-04T21:23:51.942Z,77.50
2018-09-04T21:27:25.178Z,77.50
2018-09-04T21:30:58.707Z,77.70
2018-09-04T21:34:31.934Z,77.70
2018-09-04T21:38:05.767Z,77.70
2018-09-04T21:41:39.415Z,78.00
2018-09-04T21:45:12.631Z,78.20
2018-09-04T21:48:45.867Z,78.00
2018-09-04T21:52:19.091Z,77.60
2018-09-04T21:55:52.311Z,77.20
2018-09-04T21:59:25.545Z,77.10
2018-09-04T22:02:59.140Z,77.00
2018-09-04T22:06:32.704Z,76.90
2018-09-04T22:10:05.927Z,76.70
2018-09-04T22:13:39.143Z,77.00
2018-09-04T22:17:12.354Z,77.70
2018-09-04T22:20:45.592Z,78.20
2018-09-04T22:24:18.832Z,78.80
2018-09-04T22:27:52.055Z,79.50
2018-09-04T22:31:25.295Z,79.90
2018-09-04T22:34:58.531Z,79.90
2018-09-04T22:38:31.791Z,80.10
2018-09-04T22:42:05.015Z,79.50
2018-09-04T22:45:38.234Z,79.50
2018-09-04T22:49:11.566Z,79.60
2018-09-04T22:52:44.812Z,79.70
2018-09-04T22:56:18.033Z,79.80
2018-09-04T22:59:51.251Z,79.70
2018-09-04T23:03:24.465Z,79.60
2018-09-04T23:06:57.693Z,80.00
2018-09-04T23:10:30.912Z,80.20
2018-09-04T23:14:04.157Z,80.00
2018-09-04T23:17:37.419Z,80.20
2018-09-04T23:21:10.656Z,80.40
2018-09-04T23:24:43.879Z,80.70
2018-09-04T23:28:17.107Z,80.80
2018-09-04T23:31:50.327Z,80.60
2018-09-04T23:35:23.662Z,80.70
2018-09-04T23:38:56.880Z,81.00
2018-09-04T23:42:33.100Z,81.10
2018-09-04T23:46:06.336Z,81.50
2018-09-04T23:49:39.576Z,81.70
2018-09-04T23:53:12.800Z,81.80
2018-09-04T23:56:46.051Z,82.00
